sensor_id;sensor_type;location;lat;lon;timestamp;temperature;humidity
29363;DHT22;16349;53.672;10.014;2023-04-06T00:00:45;1.60;99.90
29363;DHT22;16349;53.672;10.014;2023-04-06T00:03:12;1.60;99.90
29363;DHT22;16349;53.672;10.014;2023-04-06T00:05:39;1.60;99.90
29363;DHT22;16349;53.672;10.014;2023-04-06T00:08:06;1.50;99.90
29363;DHT22;16349;53.672;10.014;2023-04-06T00:10:33;1.50;99.90
29363;DHT22;16349;53.672;10.014;2023-04-06T00:13:01;1.50;99.90
29363;DHT22;16349;53.672;10.014;2023-04-06T00:15:28;1.40;99.90
29363;DHT22;16349;53.672;10.014;2023-04-06T00:17:55;1.40;99.90
29363;DHT22;16349;53.672;10.014;2023-04-06T00:20:22;1.40;99.90
29363;DHT22;16349;53.672;10.014;2023-04-06T00:22:50;1.40;99.90
29363;DHT22;16349;53.672;10.014;2023-04-06T00:25:16;1.40;99.90
29363;DHT22;16349;53.672;10.014;2023-04-06T00:27:43;1.30;99.90
29363;DHT22;16349;53.672;10.014;2023-04-06T00:30:12;1.30;99.90
29363;DHT22;16349;53.672;10.014;2023-04-06T00:32:39;1.30;99.90
29363;DHT22;16349;53.672;10.014;2023-04-06T00:35:07;1.30;99.90
29363;DHT22;16349;53.672;10.014;2023-04-06T00:37:34;1.30;99.90
29363;DHT22;16349;53.672;10.014;2023-04-06T00:40:01;1.30;99.90
29363;DHT22;16349;53.672;10.014;2023-04-06T00:42:28;1.30;99.90
29363;DHT22;16349;53.672;10.014;2023-04-06T00:44:59;1.20;99.90
29363;DHT22;16349;53.672;10.014;2023-04-06T00:47:27;1.20;99.90
29363;DHT22;16349;53.672;10.014;2023-04-06T00:49:54;1.20;99.90
29363;DHT22;16349;53.672;10.014;2023-04-06T00:52:21;1.20;99.90
29363;DHT22;16349;53.672;10.014;2023-04-06T00:54:49;1.20;99.90
29363;DHT22;16349;53.672;10.014;2023-04-06T00:57:18;1.10;99.90
29363;DHT22;16349;53.672;10.014;2023-04-06T00:59:46;1.10;99.90
29363;DHT22;16349;53.672;10.014;2023-04-06T01:02:13;1.10;99.90
29363;DHT22;16349;53.672;10.014;2023-04-06T01:04:47;1.10;99.90
29363;DHT22;16349;53.672;10.014;2023-04-06T01:07:23;1.00;99.90
29363;DHT22;16349;53.672;10.014;2023-04-06T01:10:23;0.90;99.90
29363;DHT22;16349;53.672;10.014;2023-04-06T01:12:53;1.00;99.90
29363;DHT22;16349;53.672;10.014;2023-04-06T01:15:37;1.00;99.90
29363;DHT22;16349;53.672;10.014;2023-04-06T01:18:07;1.00;99.90
29363;DHT22;16349;53.672;10.014;2023-04-06T01:20:41;1.00;99.90
29363;DHT22;16349;53.672;10.014;2023-04-06T01:23:10;1.00;99.90
29363;DHT22;16349;53.672;10.014;2023-04-06T01:25:44;1.00;99.90
29363;DHT22;16349;53.672;10.014;2023-04-06T01:28:33;1.00;99.90
29363;DHT22;16349;53.672;10.014;2023-04-06T01:31:10;0.90;99.90
29363;DHT22;16349;53.672;10.014;2023-04-06T01:33:58;0.90;99.90
29363;DHT22;16349;53.672;10.014;2023-04-06T01:36:26;0.90;99.90
29363;DHT22;16349;53.672;10.014;2023-04-06T01:39:03;0.90;99.90
29363;DHT22;16349;53.672;10.014;2023-04-06T01:41:34;0.90;99.90
29363;DHT22;16349;53.672;10.014;2023-04-06T01:44:02;0.90;99.90
29363;DHT22;16349;53.672;10.014;2023-04-06T01:46:30;0.90;99.90
29363;DHT22;16349;53.672;10.014;2023-04-06T01:48:59;0.90;99.90
29363;DHT22;16349;53.672;10.014;2023-04-06T01:51:34;0.80;99.90
29363;DHT22;16349;53.672;10.014;2023-04-06T01:54:06;0.90;99.90
29363;DHT22;16349;53.672;10.014;2023-04-06T01:56:46;0.80;99.90
29363;DHT22;16349;53.672;10.014;2023-04-06T01:59:27;0.80;99.90
29363;DHT22;16349;53.672;10.014;2023-04-06T02:01:55;0.80;99.90
29363;DHT22;16349;53.672;10.014;2023-04-06T02:04:24;0.80;99.90
29363;DHT22;16349;53.672;10.014;2023-04-06T02:07:05;0.80;99.90
29363;DHT22;16349;53.672;10.014;2023-04-06T02:09:34;0.80;99.90
29363;DHT22;16349;53.672;10.014;2023-04-06T02:12:02;0.80;99.90
29363;DHT22;16349;53.672;10.014;2023-04-06T02:14:32;0.80;99.90
29363;DHT22;16349;53.672;10.014;2023-04-06T02:17:00;0.70;99.90
29363;DHT22;16349;53.672;10.014;2023-04-06T02:19:26;0.70;99.90
29363;DHT22;16349;53.672;10.014;2023-04-06T02:21:53;0.70;99.90
29363;DHT22;16349;53.672;10.014;2023-04-06T02:24:20;0.70;99.90
29363;DHT22;16349;53.672;10.014;2023-04-06T02:26:48;0.60;99.90
29363;DHT22;16349;53.672;10.014;2023-04-06T02:29:16;0.70;99.90
29363;DHT22;16349;53.672;10.014;2023-04-06T02:31:43;0.70;99.90
29363;DHT22;16349;53.672;10.014;2023-04-06T02:34:11;0.70;99.90
29363;DHT22;16349;53.672;10.014;2023-04-06T02:36:47;0.60;99.90
29363;DHT22;16349;53.672;10.014;2023-04-06T02:39:14;0.60;99.90
29363;DHT22;16349;53.672;10.014;2023-04-06T02:41:41;0.60;99.90
29363;DHT22;16349;53.672;10.014;2023-04-06T02:44:11;0.50;99.90
29363;DHT22;16349;53.672;10.014;2023-04-06T02:46:42;0.50;99.90
29363;DHT22;16349;53.672;10.014;2023-04-06T02:49:10;0.50;99.90
29363;DHT22;16349;53.672;10.014;2023-04-06T02:51:38;0.50;99.90
29363;DHT22;16349;53.672;10.014;2023-04-06T02:54:15;0.60;99.90
29363;DHT22;16349;53.672;10.014;2023-04-06T02:56:43;0.50;99.90
29363;DHT22;16349;53.672;10.014;2023-04-06T02:59:11;0.50;99.90
29363;DHT22;16349;53.672;10.014;2023-04-06T03:01:42;0.40;99.90
29363;DHT22;16349;53.672;10.014;2023-04-06T03:04:09;0.40;99.90
29363;DHT22;16349;53.672;10.014;2023-04-06T03:06:36;0.40;99.90
29363;DHT22;16349;53.672;10.014;2023-04-06T03:09:12;0.30;99.90
29363;DHT22;16349;53.672;10.014;2023-04-06T03:11:42;0.30;99.90
29363;DHT22;16349;53.672;10.014;2023-04-06T03:14:11;0.30;99.90
29363;DHT22;16349;53.672;10.014;2023-04-06T03:16:37;0.30;99.90
29363;DHT22;16349;53.672;10.014;2023-04-06T03:19:04;0.30;99.90
29363;DHT22;16349;53.672;10.014;2023-04-06T03:21:34;0.20;99.90
29363;DHT22;16349;53.672;10.014;2023-04-06T03:24:01;0.20;99.90
29363;DHT22;16349;53.672;10.014;2023-04-06T03:26:28;0.20;99.90
29363;DHT22;16349;53.672;10.014;2023-04-06T03:28:58;0.20;99.90
29363;DHT22;16349;53.672;10.014;2023-04-06T03:31:30;0.20;99.90
29363;DHT22;16349;53.672;10.014;2023-04-06T03:34:18;0.20;99.90
29363;DHT22;16349;53.672;10.014;2023-04-06T03:36:45;0.10;99.90
29363;DHT22;16349;53.672;10.014;2023-04-06T03:39:13;0.10;99.90
29363;DHT22;16349;53.672;10.014;2023-04-06T03:41:42;0.10;99.90
29363;DHT22;16349;53.672;10.014;2023-04-06T03:44:30;0.00;99.90
29363;DHT22;16349;53.672;10.014;2023-04-06T03:46:58;0.00;99.90
29363;DHT22;16349;53.672;10.014;2023-04-06T03:49:26;0.10;99.90
29363;DHT22;16349;53.672;10.014;2023-04-06T03:51:56;0.00;99.90
29363;DHT22;16349;53.672;10.014;2023-04-06T03:54:23;0.00;99.90
29363;DHT22;16349;53.672;10.014;2023-04-06T03:56:50;0.10;99.90
29363;DHT22;16349;53.672;10.014;2023-04-06T03:59:17;0.00;99.90
29363;DHT22;16349;53.672;10.014;2023-04-06T04:01:44;0.10;99.90
29363;DHT22;16349;53.672;10.014;2023-04-06T04:04:13;0.00;99.90
29363;DHT22;16349;53.672;10.014;2023-04-06T04:06:39;0.00;99.90
29363;DHT22;16349;53.672;10.014;2023-04-06T04:09:07;-0.10;99.90
29363;DHT22;16349;53.672;10.014;2023-04-06T04:11:34;-0.10;99.90
29363;DHT22;16349;53.672;10.014;2023-04-06T04:14:01;-0.10;99.90
29363;DHT22;16349;53.672;10.014;2023-04-06T04:16:28;-0.10;99.90
29363;DHT22;16349;53.672;10.014;2023-04-06T04:18:56;-0.10;99.90
29363;DHT22;16349;53.672;10.014;2023-04-06T04:21:25;-0.10;99.90
29363;DHT22;16349;53.672;10.014;2023-04-06T04:23:52;-0.10;99.90
29363;DHT22;16349;53.672;10.014;2023-04-06T04:26:19;-0.10;99.90
29363;DHT22;16349;53.672;10.014;2023-04-06T04:28:46;-0.10;99.90
29363;DHT22;16349;53.672;10.014;2023-04-06T04:31:13;-0.10;99.90
29363;DHT22;16349;53.672;10.014;2023-04-06T04:34:01;-0.10;99.90
29363;DHT22;16349;53.672;10.014;2023-04-06T04:36:33;-0.10;99.90
29363;DHT22;16349;53.672;10.014;2023-04-06T04:39:04;-0.10;99.90
29363;DHT22;16349;53.672;10.014;2023-04-06T04:41:36;-0.10;99.90
29363;DHT22;16349;53.672;10.014;2023-04-06T04:44:07;-0.10;99.90
29363;DHT22;16349;53.672;10.014;2023-04-06T04:46:34;-0.10;99.90
29363;DHT22;16349;53.672;10.014;2023-04-06T04:49:01;-0.20;99.90
29363;DHT22;16349;53.672;10.014;2023-04-06T04:51:29;-0.20;99.90
29363;DHT22;16349;53.672;10.014;2023-04-06T04:54:22;-0.20;99.90
29363;DHT22;16349;53.672;10.014;2023-04-06T04:56:49;-0.20;99.90
29363;DHT22;16349;53.672;10.014;2023-04-06T04:59:27;-0.20;99.90
29363;DHT22;16349;53.672;10.014;2023-04-06T05:02:00;-0.20;99.90
29363;DHT22;16349;53.672;10.014;2023-04-06T05:04:37;-0.20;99.90
29363;DHT22;16349;53.672;10.014;2023-04-06T05:07:08;-0.20;99.90
29363;DHT22;16349;53.672;10.014;2023-04-06T05:09:39;-0.20;99.90
29363;DHT22;16349;53.672;10.014;2023-04-06T05:12:07;-0.20;99.90
29363;DHT22;16349;53.672;10.014;2023-04-06T05:14:42;-0.20;99.90
29363;DHT22;16349;53.672;10.014;2023-04-06T05:17:13;-0.20;99.90
29363;DHT22;16349;53.672;10.014;2023-04-06T05:19:40;-0.10;99.90
29363;DHT22;16349;53.672;10.014;2023-04-06T05:22:09;-0.10;99.90
29363;DHT22;16349;53.672;10.014;2023-04-06T05:24:40;-0.10;99.90
29363;DHT22;16349;53.672;10.014;2023-04-06T05:27:07;-0.10;99.90
29363;DHT22;16349;53.672;10.014;2023-04-06T05:29:35;0.00;99.90
29363;DHT22;16349;53.672;10.014;2023-04-06T05:32:03;0.00;99.90
29363;DHT22;16349;53.672;10.014;2023-04-06T05:34:30;0.00;99.90
29363;DHT22;16349;53.672;10.014;2023-04-06T05:37:01;0.00;99.90
29363;DHT22;16349;53.672;10.014;2023-04-06T05:39:28;0.00;99.90
29363;DHT22;16349;53.672;10.014;2023-04-06T05:41:56;0.00;99.90
29363;DHT22;16349;53.672;10.014;2023-04-06T05:44:34;0.10;99.90
29363;DHT22;16349;53.672;10.014;2023-04-06T05:47:06;0.10;99.90
29363;DHT22;16349;53.672;10.014;2023-04-06T05:49:37;0.20;99.90
29363;DHT22;16349;53.672;10.014;2023-04-06T05:52:10;0.30;99.90
29363;DHT22;16349;53.672;10.014;2023-04-06T05:54:38;0.40;99.90
29363;DHT22;16349;53.672;10.014;2023-04-06T05:57:06;0.40;99.90
29363;DHT22;16349;53.672;10.014;2023-04-06T05:59:34;0.60;99.90
29363;DHT22;16349;53.672;10.014;2023-04-06T06:02:01;0.60;99.90
29363;DHT22;16349;53.672;10.014;2023-04-06T06:04:32;0.70;99.90
29363;DHT22;16349;53.672;10.014;2023-04-06T06:06:59;0.80;99.90
29363;DHT22;16349;53.672;10.014;2023-04-06T06:09:33;0.90;99.90
29363;DHT22;16349;53.672;10.014;2023-04-06T06:12:13;1.00;99.90
29363;DHT22;16349;53.672;10.014;2023-04-06T06:14:58;1.10;99.90
29363;DHT22;16349;53.672;10.014;2023-04-06T06:17:27;1.20;99.90
29363;DHT22;16349;53.672;10.014;2023-04-06T06:19:55;1.30;99.90
29363;DHT22;16349;53.672;10.014;2023-04-06T06:22:21;1.40;99.90
29363;DHT22;16349;53.672;10.014;2023-04-06T06:24:49;1.50;99.90
29363;DHT22;16349;53.672;10.014;2023-04-06T06:27:19;1.60;99.90
29363;DHT22;16349;53.672;10.014;2023-04-06T06:29:46;1.70;99.90
29363;DHT22;16349;53.672;10.014;2023-04-06T06:32:14;1.80;99.90
29363;DHT22;16349;53.672;10.014;2023-04-06T06:34:41;1.90;99.90
29363;DHT22;16349;53.672;10.014;2023-04-06T06:37:09;2.00;99.90
29363;DHT22;16349;53.672;10.014;2023-04-06T06:39:37;2.10;99.90
29363;DHT22;16349;53.672;10.014;2023-04-06T06:42:05;2.20;99.90
29363;DHT22;16349;53.672;10.014;2023-04-06T06:44:54;2.30;99.90
29363;DHT22;16349;53.672;10.014;2023-04-06T06:47:20;2.50;99.90
29363;DHT22;16349;53.672;10.014;2023-04-06T06:49:47;2.60;99.90
29363;DHT22;16349;53.672;10.014;2023-04-06T06:52:14;2.70;99.90
29363;DHT22;16349;53.672;10.014;2023-04-06T06:54:41;2.90;99.90
29363;DHT22;16349;53.672;10.014;2023-04-06T06:57:08;3.00;99.90
29363;DHT22;16349;53.672;10.014;2023-04-06T06:59:35;3.20;99.90
29363;DHT22;16349;53.672;10.014;2023-04-06T07:02:04;3.30;99.90
29363;DHT22;16349;53.672;10.014;2023-04-06T07:04:30;3.40;99.90
29363;DHT22;16349;53.672;10.014;2023-04-06T07:06:57;3.60;99.90
29363;DHT22;16349;53.672;10.014;2023-04-06T07:09:24;3.70;99.90
29363;DHT22;16349;53.672;10.014;2023-04-06T07:11:52;3.80;99.90
29363;DHT22;16349;53.672;10.014;2023-04-06T07:14:19;4.00;99.90
29363;DHT22;16349;53.672;10.014;2023-04-06T07:16:48;4.10;99.90
29363;DHT22;16349;53.672;10.014;2023-04-06T07:19:16;4.30;99.90
29363;DHT22;16349;53.672;10.014;2023-04-06T07:21:44;4.40;99.90
29363;DHT22;16349;53.672;10.014;2023-04-06T07:24:11;4.50;99.90
29363;DHT22;16349;53.672;10.014;2023-04-06T07:26:38;4.60;99.90
29363;DHT22;16349;53.672;10.014;2023-04-06T07:29:05;4.70;99.90
29363;DHT22;16349;53.672;10.014;2023-04-06T07:31:32;4.90;99.90
29363;DHT22;16349;53.672;10.014;2023-04-06T07:33:59;5.00;99.90
29363;DHT22;16349;53.672;10.014;2023-04-06T07:36:27;5.20;99.90
29363;DHT22;16349;53.672;10.014;2023-04-06T07:38:55;5.30;99.90
29363;DHT22;16349;53.672;10.014;2023-04-06T07:41:22;5.50;99.90
29363;DHT22;16349;53.672;10.014;2023-04-06T07:43:50;5.70;99.90
29363;DHT22;16349;53.672;10.014;2023-04-06T07:46:17;5.80;99.90
29363;DHT22;16349;53.672;10.014;2023-04-06T07:48:44;5.90;99.90
29363;DHT22;16349;53.672;10.014;2023-04-06T07:51:10;6.00;99.90
29363;DHT22;16349;53.672;10.014;2023-04-06T07:53:41;6.10;99.90
29363;DHT22;16349;53.672;10.014;2023-04-06T07:56:08;6.30;99.90
29363;DHT22;16349;53.672;10.014;2023-04-06T07:58:35;6.50;99.90
29363;DHT22;16349;53.672;10.014;2023-04-06T08:01:02;6.60;99.90
29363;DHT22;16349;53.672;10.014;2023-04-06T08:03:29;6.70;99.90
29363;DHT22;16349;53.672;10.014;2023-04-06T08:05:55;6.90;99.90
29363;DHT22;16349;53.672;10.014;2023-04-06T08:10:51;7.10;99.90
29363;DHT22;16349;53.672;10.014;2023-04-06T08:13:17;7.10;99.90
29363;DHT22;16349;53.672;10.014;2023-04-06T08:15:45;7.20;99.90
29363;DHT22;16349;53.672;10.014;2023-04-06T08:18:12;7.20;99.90
29363;DHT22;16349;53.672;10.014;2023-04-06T08:20:39;7.30;99.90
29363;DHT22;16349;53.672;10.014;2023-04-06T08:23:06;7.30;99.90
29363;DHT22;16349;53.672;10.014;2023-04-06T08:25:35;7.40;99.90
29363;DHT22;16349;53.672;10.014;2023-04-06T08:28:04;7.50;99.90
29363;DHT22;16349;53.672;10.014;2023-04-06T08:30:31;7.60;99.90
29363;DHT22;16349;53.672;10.014;2023-04-06T08:32:58;7.70;99.90
29363;DHT22;16349;53.672;10.014;2023-04-06T08:35:25;7.60;99.60
29363;DHT22;16349;53.672;10.014;2023-04-06T08:37:53;7.80;99.90
29363;DHT22;16349;53.672;10.014;2023-04-06T08:40:20;7.90;99.90
29363;DHT22;16349;53.672;10.014;2023-04-06T08:42:52;8.00;99.60
29363;DHT22;16349;53.672;10.014;2023-04-06T08:45:22;8.10;98.20
29363;DHT22;16349;53.672;10.014;2023-04-06T08:47:50;8.10;98.20
29363;DHT22;16349;53.672;10.014;2023-04-06T08:50:18;8.10;97.40
29363;DHT22;16349;53.672;10.014;2023-04-06T08:52:47;8.20;97.10
29363;DHT22;16349;53.672;10.014;2023-04-06T08:55:14;8.30;96.90
29363;DHT22;16349;53.672;10.014;2023-04-06T08:57:41;8.40;98.80
29363;DHT22;16349;53.672;10.014;2023-04-06T09:00:10;8.60;96.30
29363;DHT22;16349;53.672;10.014;2023-04-06T09:02:39;8.70;95.80
29363;DHT22;16349;53.672;10.014;2023-04-06T09:05:08;8.80;95.60
29363;DHT22;16349;53.672;10.014;2023-04-06T09:07:35;9.00;95.70
29363;DHT22;16349;53.672;10.014;2023-04-06T09:10:03;8.90;95.90
29363;DHT22;16349;53.672;10.014;2023-04-06T09:12:31;8.90;96.10
29363;DHT22;16349;53.672;10.014;2023-04-06T09:14:58;9.00;94.90
29363;DHT22;16349;53.672;10.014;2023-04-06T09:17:27;8.90;94.40
29363;DHT22;16349;53.672;10.014;2023-04-06T09:19:56;9.10;93.10
29363;DHT22;16349;53.672;10.014;2023-04-06T09:22:23;9.10;93.00
29363;DHT22;16349;53.672;10.014;2023-04-06T09:24:53;9.10;94.60
29363;DHT22;16349;53.672;10.014;2023-04-06T09:27:30;9.20;93.20
29363;DHT22;16349;53.672;10.014;2023-04-06T09:30:03;9.30;94.30
29363;DHT22;16349;53.672;10.014;2023-04-06T09:32:30;9.30;90.30
29363;DHT22;16349;53.672;10.014;2023-04-06T09:35:07;9.30;87.00
29363;DHT22;16349;53.672;10.014;2023-04-06T09:37:34;9.40;86.10
29363;DHT22;16349;53.672;10.014;2023-04-06T09:40:03;9.40;86.30
29363;DHT22;16349;53.672;10.014;2023-04-06T09:42:31;9.50;85.70
29363;DHT22;16349;53.672;10.014;2023-04-06T09:44:57;9.60;87.20
29363;DHT22;16349;53.672;10.014;2023-04-06T09:47:24;9.60;88.30
29363;DHT22;16349;53.672;10.014;2023-04-06T09:49:57;9.60;84.00
29363;DHT22;16349;53.672;10.014;2023-04-06T09:52:29;9.60;81.40
29363;DHT22;16349;53.672;10.014;2023-04-06T09:55:01;9.60;82.30
29363;DHT22;16349;53.672;10.014;2023-04-06T09:57:32;9.70;82.10
29363;DHT22;16349;53.672;10.014;2023-04-06T10:00:04;9.70;82.10
29363;DHT22;16349;53.672;10.014;2023-04-06T10:02:43;9.70;83.40
29363;DHT22;16349;53.672;10.014;2023-04-06T10:05:20;9.90;82.80
29363;DHT22;16349;53.672;10.014;2023-04-06T10:07:54;9.90;81.70
29363;DHT22;16349;53.672;10.014;2023-04-06T10:10:22;9.90;82.10
29363;DHT22;16349;53.672;10.014;2023-04-06T10:12:49;9.90;81.90
29363;DHT22;16349;53.672;10.014;2023-04-06T10:15:16;10.00;81.00
29363;DHT22;16349;53.672;10.014;2023-04-06T10:17:43;10.10;81.70
29363;DHT22;16349;53.672;10.014;2023-04-06T10:20:15;10.10;81.60
29363;DHT22;16349;53.672;10.014;2023-04-06T10:22:48;10.20;81.50
29363;DHT22;16349;53.672;10.014;2023-04-06T10:25:27;10.20;81.10
29363;DHT22;16349;53.672;10.014;2023-04-06T10:28:02;10.00;81.40
29363;DHT22;16349;53.672;10.014;2023-04-06T10:30:32;10.00;83.00
29363;DHT22;16349;53.672;10.014;2023-04-06T10:33:00;10.20;84.10
29363;DHT22;16349;53.672;10.014;2023-04-06T10:35:37;10.30;84.00
29363;DHT22;16349;53.672;10.014;2023-04-06T10:38:04;10.50;82.00
29363;DHT22;16349;53.672;10.014;2023-04-06T10:40:36;10.50;80.30
29363;DHT22;16349;53.672;10.014;2023-04-06T10:43:11;10.70;78.40
29363;DHT22;16349;53.672;10.014;2023-04-06T10:45:38;10.70;77.20
29363;DHT22;16349;53.672;10.014;2023-04-06T10:48:15;10.80;77.40
29363;DHT22;16349;53.672;10.014;2023-04-06T10:50:44;10.90;75.90
29363;DHT22;16349;53.672;10.014;2023-04-06T10:53:11;11.00;76.00
29363;DHT22;16349;53.672;10.014;2023-04-06T10:55:40;10.90;74.40
29363;DHT22;16349;53.672;10.014;2023-04-06T10:58:08;10.90;74.50
29363;DHT22;16349;53.672;10.014;2023-04-06T11:00:35;10.90;74.70
29363;DHT22;16349;53.672;10.014;2023-04-06T11:03:02;10.90;74.00
29363;DHT22;16349;53.672;10.014;2023-04-06T11:05:28;10.90;73.70
29363;DHT22;16349;53.672;10.014;2023-04-06T11:07:56;11.00;74.00
29363;DHT22;16349;53.672;10.014;2023-04-06T11:10:22;11.10;73.80
29363;DHT22;16349;53.672;10.014;2023-04-06T11:12:54;11.20;73.30
29363;DHT22;16349;53.672;10.014;2023-04-06T11:15:22;11.20;72.30
29363;DHT22;16349;53.672;10.014;2023-04-06T11:17:49;11.20;72.20
29363;DHT22;16349;53.672;10.014;2023-04-06T11:20:16;11.30;72.80
29363;DHT22;16349;53.672;10.014;2023-04-06T11:22:48;11.20;72.10
29363;DHT22;16349;53.672;10.014;2023-04-06T11:25:15;11.30;72.50
29363;DHT22;16349;53.672;10.014;2023-04-06T11:27:43;11.40;72.80
29363;DHT22;16349;53.672;10.014;2023-04-06T11:30:13;11.50;71.90
29363;DHT22;16349;53.672;10.014;2023-04-06T11:32:40;11.40;71.30
29363;DHT22;16349;53.672;10.014;2023-04-06T11:35:11;11.50;71.30
29363;DHT22;16349;53.672;10.014;2023-04-06T11:37:38;11.50;70.50
29363;DHT22;16349;53.672;10.014;2023-04-06T11:40:08;11.50;71.60
29363;DHT22;16349;53.672;10.014;2023-04-06T11:42:36;11.50;71.70
29363;DHT22;16349;53.672;10.014;2023-04-06T11:45:04;11.60;72.00
29363;DHT22;16349;53.672;10.014;2023-04-06T11:47:33;11.70;70.80
29363;DHT22;16349;53.672;10.014;2023-04-06T11:50:05;11.70;69.90
29363;DHT22;16349;53.672;10.014;2023-04-06T11:52:32;11.70;70.30
29363;DHT22;16349;53.672;10.014;2023-04-06T11:55:10;11.90;71.80
29363;DHT22;16349;53.672;10.014;2023-04-06T11:57:37;12.00;68.90
29363;DHT22;16349;53.672;10.014;2023-04-06T12:00:06;11.90;70.00
29363;DHT22;16349;53.672;10.014;2023-04-06T12:02:34;12.00;70.20
29363;DHT22;16349;53.672;10.014;2023-04-06T12:05:01;12.10;70.30
29363;DHT22;16349;53.672;10.014;2023-04-06T12:07:30;12.20;70.10
29363;DHT22;16349;53.672;10.014;2023-04-06T12:10:01;12.20;69.60
29363;DHT22;16349;53.672;10.014;2023-04-06T12:14:57;12.20;95.00
29363;DHT22;16349;53.672;10.014;2023-04-06T12:17:24;12.40;68.20
29363;DHT22;16349;53.672;10.014;2023-04-06T12:19:52;12.30;69.10
29363;DHT22;16349;53.672;10.014;2023-04-06T12:22:19;12.50;68.60
29363;DHT22;16349;53.672;10.014;2023-04-06T12:24:45;12.50;67.90
29363;DHT22;16349;53.672;10.014;2023-04-06T12:27:13;12.50;68.30
29363;DHT22;16349;53.672;10.014;2023-04-06T12:29:39;12.50;67.10
29363;DHT22;16349;53.672;10.014;2023-04-06T12:32:06;12.60;67.60
29363;DHT22;16349;53.672;10.014;2023-04-06T12:34:33;12.70;67.60
29363;DHT22;16349;53.672;10.014;2023-04-06T12:37:02;12.70;66.90
29363;DHT22;16349;53.672;10.014;2023-04-06T12:39:29;12.70;67.50
29363;DHT22;16349;53.672;10.014;2023-04-06T12:41:56;12.80;74.80
29363;DHT22;16349;53.672;10.014;2023-04-06T12:44:23;12.80;71.40
29363;DHT22;16349;53.672;10.014;2023-04-06T12:46:50;12.70;72.60
29363;DHT22;16349;53.672;10.014;2023-04-06T12:49:18;12.80;68.80
29363;DHT22;16349;53.672;10.014;2023-04-06T12:51:45;13.10;67.60
29363;DHT22;16349;53.672;10.014;2023-04-06T12:54:13;13.20;67.50
29363;DHT22;16349;53.672;10.014;2023-04-06T12:56:40;13.10;66.20
29363;DHT22;16349;53.672;10.014;2023-04-06T12:59:07;13.20;67.50
29363;DHT22;16349;53.672;10.014;2023-04-06T13:01:34;13.30;67.10
29363;DHT22;16349;53.672;10.014;2023-04-06T13:04:01;13.40;66.20
29363;DHT22;16349;53.672;10.014;2023-04-06T13:06:28;13.50;66.30
29363;DHT22;16349;53.672;10.014;2023-04-06T13:08:56;13.60;65.00
29363;DHT22;16349;53.672;10.014;2023-04-06T13:11:25;13.60;65.40
29363;DHT22;16349;53.672;10.014;2023-04-06T13:13:52;13.60;64.70
29363;DHT22;16349;53.672;10.014;2023-04-06T13:16:19;13.80;65.40
29363;DHT22;16349;53.672;10.014;2023-04-06T13:18:45;14.00;65.10
29363;DHT22;16349;53.672;10.014;2023-04-06T13:21:14;14.20;64.20
29363;DHT22;16349;53.672;10.014;2023-04-06T13:23:42;14.50;63.60
29363;DHT22;16349;53.672;10.014;2023-04-06T13:26:09;14.70;62.50
29363;DHT22;16349;53.672;10.014;2023-04-06T13:28:37;14.80;62.10
29363;DHT22;16349;53.672;10.014;2023-04-06T13:31:05;15.30;62.10
29363;DHT22;16349;53.672;10.014;2023-04-06T13:33:32;15.60;59.30
29363;DHT22;16349;53.672;10.014;2023-04-06T13:36:00;15.80;60.10
29363;DHT22;16349;53.672;10.014;2023-04-06T13:38:26;15.90;59.30
29363;DHT22;16349;53.672;10.014;2023-04-06T13:40:54;16.20;59.10
29363;DHT22;16349;53.672;10.014;2023-04-06T13:43:21;16.30;57.90
29363;DHT22;16349;53.672;10.014;2023-04-06T13:45:50;16.20;56.80
29363;DHT22;16349;53.672;10.014;2023-04-06T13:48:18;16.20;57.20
29363;DHT22;16349;53.672;10.014;2023-04-06T13:50:45;16.50;57.10
29363;DHT22;16349;53.672;10.014;2023-04-06T13:53:12;16.70;73.90
29363;DHT22;16349;53.672;10.014;2023-04-06T13:55:39;17.00;55.80
29363;DHT22;16349;53.672;10.014;2023-04-06T13:58:06;16.90;56.00
29363;DHT22;16349;53.672;10.014;2023-04-06T14:00:33;16.80;55.40
29363;DHT22;16349;53.672;10.014;2023-04-06T14:03:01;16.70;54.40
29363;DHT22;16349;53.672;10.014;2023-04-06T14:05:31;17.00;66.50
29363;DHT22;16349;53.672;10.014;2023-04-06T14:07:58;17.40;68.70
29363;DHT22;16349;53.672;10.014;2023-04-06T14:10:25;17.50;72.20
29363;DHT22;16349;53.672;10.014;2023-04-06T14:12:53;17.40;68.60
29363;DHT22;16349;53.672;10.014;2023-04-06T14:15:21;17.50;73.90
29363;DHT22;16349;53.672;10.014;2023-04-06T14:17:49;17.40;69.00
29363;DHT22;16349;53.672;10.014;2023-04-06T14:20:18;17.60;65.90
29363;DHT22;16349;53.672;10.014;2023-04-06T14:22:45;17.90;52.90
29363;DHT22;16349;53.672;10.014;2023-04-06T14:25:14;17.90;53.70
29363;DHT22;16349;53.672;10.014;2023-04-06T14:27:42;18.10;53.30
29363;DHT22;16349;53.672;10.014;2023-04-06T14:30:09;18.10;52.10
29363;DHT22;16349;53.672;10.014;2023-04-06T14:32:36;18.20;51.40
29363;DHT22;16349;53.672;10.014;2023-04-06T14:35:04;18.40;51.10
29363;DHT22;16349;53.672;10.014;2023-04-06T14:37:32;18.30;51.10
29363;DHT22;16349;53.672;10.014;2023-04-06T14:39:59;18.20;51.10
29363;DHT22;16349;53.672;10.014;2023-04-06T14:42:28;18.20;51.70
29363;DHT22;16349;53.672;10.014;2023-04-06T14:44:55;18.30;51.20
29363;DHT22;16349;53.672;10.014;2023-04-06T14:47:22;18.50;50.50
29363;DHT22;16349;53.672;10.014;2023-04-06T14:49:51;18.80;50.40
29363;DHT22;16349;53.672;10.014;2023-04-06T14:52:18;18.60;49.60
29363;DHT22;16349;53.672;10.014;2023-04-06T14:55:08;18.50;49.70
29363;DHT22;16349;53.672;10.014;2023-04-06T14:57:34;18.50;48.90
29363;DHT22;16349;53.672;10.014;2023-04-06T15:00:02;18.40;49.00
29363;DHT22;16349;53.672;10.014;2023-04-06T15:02:29;18.30;48.60
29363;DHT22;16349;53.672;10.014;2023-04-06T15:04:58;18.30;49.40
29363;DHT22;16349;53.672;10.014;2023-04-06T15:07:25;18.30;48.50
29363;DHT22;16349;53.672;10.014;2023-04-06T15:09:51;18.30;49.30
29363;DHT22;16349;53.672;10.014;2023-04-06T15:12:20;18.40;49.60
29363;DHT22;16349;53.672;10.014;2023-04-06T15:14:46;18.60;49.30
29363;DHT22;16349;53.672;10.014;2023-04-06T15:17:13;18.60;48.90
29363;DHT22;16349;53.672;10.014;2023-04-06T15:19:40;18.50;48.70
29363;DHT22;16349;53.672;10.014;2023-04-06T15:22:07;18.50;49.60
29363;DHT22;16349;53.672;10.014;2023-04-06T15:24:34;18.40;49.40
29363;DHT22;16349;53.672;10.014;2023-04-06T15:27:01;18.50;48.90
29363;DHT22;16349;53.672;10.014;2023-04-06T15:29:31;18.50;48.40
29363;DHT22;16349;53.672;10.014;2023-04-06T15:31:58;18.60;48.80
29363;DHT22;16349;53.672;10.014;2023-04-06T15:34:25;18.60;47.80
29363;DHT22;16349;53.672;10.014;2023-04-06T15:36:55;18.30;49.10
29363;DHT22;16349;53.672;10.014;2023-04-06T15:39:24;18.40;48.90
29363;DHT22;16349;53.672;10.014;2023-04-06T15:41:51;18.40;49.20